sensor_id;sensor_type;location;lat;lon;timestamp;pressure;altitude;pressure_sealevel;temperature
71807;BMP280;59655;42.590;23.364;2024-01-10T00:01:46;92152.31;;;-3.76
71807;BMP280;59655;42.590;23.364;2024-01-10T00:04:11;92156.38;;;-3.75
71807;BMP280;59655;42.590;23.364;2024-01-10T00:06:36;92150.47;;;-3.53
71807;BMP280;59655;42.590;23.364;2024-01-10T00:09:02;92149.78;;;-3.66
71807;BMP280;59655;42.590;23.364;2024-01-10T00:11:27;92152.09;;;-3.68
71807;BMP280;59655;42.590;23.364;2024-01-10T00:13:53;92149.19;;;-3.71
71807;BMP280;59655;42.590;23.364;2024-01-10T00:16:20;92164.81;;;-3.61
71807;BMP280;59655;42.590;23.364;2024-01-10T00:18:45;92148.69;;;-3.43
71807;BMP280;59655;42.590;23.364;2024-01-10T00:21:11;92150.88;;;-3.42
71807;BMP280;59655;42.590;23.364;2024-01-10T00:23:36;92152.72;;;-3.42
71807;BMP280;59655;42.590;23.364;2024-01-10T00:26:02;92155.69;;;-3.31
71807;BMP280;59655;42.590;23.364;2024-01-10T00:28:27;92164.31;;;-3.34
71807;BMP280;59655;42.590;23.364;2024-01-10T00:30:52;92165.03;;;-3.34
71807;BMP280;59655;42.590;23.364;2024-01-10T00:33:18;92163.25;;;-3.24
71807;BMP280;59655;42.590;23.364;2024-01-10T00:35:43;92163.56;;;-3.35
71807;BMP280;59655;42.590;23.364;2024-01-10T00:38:09;92157.91;;;-3.42
71807;BMP280;59655;42.590;23.364;2024-01-10T00:40:35;92161.56;;;-3.53
71807;BMP280;59655;42.590;23.364;2024-01-10T00:43:01;92163.94;;;-3.45
71807;BMP280;59655;42.590;23.364;2024-01-10T00:45:27;92172.03;;;-3.43
71807;BMP280;59655;42.590;23.364;2024-01-10T00:47:52;92157.50;;;-3.41
71807;BMP280;59655;42.590;23.364;2024-01-10T00:50:17;92167.16;;;-3.41
71807;BMP280;59655;42.590;23.364;2024-01-10T00:52:46;92162.19;;;-3.48
71807;BMP280;59655;42.590;23.364;2024-01-10T00:55:12;92167.44;;;-3.39
71807;BMP280;59655;42.590;23.364;2024-01-10T00:57:37;92175.34;;;-3.56
71807;BMP280;59655;42.590;23.364;2024-01-10T01:00:05;92170.47;;;-3.54
71807;BMP280;59655;42.590;23.364;2024-01-10T01:02:30;92164.16;;;-3.53
71807;BMP280;59655;42.590;23.364;2024-01-10T01:04:56;92171.44;;;-3.47
71807;BMP280;59655;42.590;23.364;2024-01-10T01:07:21;92157.69;;;-3.35
71807;BMP280;59655;42.590;23.364;2024-01-10T01:09:46;92164.66;;;-3.45
71807;BMP280;59655;42.590;23.364;2024-01-10T01:12:12;92161.09;;;-3.38
71807;BMP280;59655;42.590;23.364;2024-01-10T01:14:37;92153.66;;;-3.36
71807;BMP280;59655;42.590;23.364;2024-01-10T01:17:02;92153.47;;;-3.42
71807;BMP280;59655;42.590;23.364;2024-01-10T01:19:28;92151.88;;;-3.39
71807;BMP280;59655;42.590;23.364;2024-01-10T01:21:53;92167.03;;;-3.38
71807;BMP280;59655;42.590;23.364;2024-01-10T01:24:18;92157.13;;;-3.52
71807;BMP280;59655;42.590;23.364;2024-01-10T01:26:44;92165.13;;;-3.59
71807;BMP280;59655;42.590;23.364;2024-01-10T01:29:09;92157.56;;;-3.66
71807;BMP280;59655;42.590;23.364;2024-01-10T01:31:34;92156.13;;;-3.67
71807;BMP280;59655;42.590;23.364;2024-01-10T01:34:00;92151.81;;;-3.48
71807;BMP280;59655;42.590;23.364;2024-01-10T01:36:25;92151.06;;;-3.36
71807;BMP280;59655;42.590;23.364;2024-01-10T01:38:51;92149.00;;;-3.41
71807;BMP280;59655;42.590;23.364;2024-01-10T01:41:16;92143.09;;;-3.42
71807;BMP280;59655;42.590;23.364;2024-01-10T01:43:42;92144.91;;;-3.52
71807;BMP280;59655;42.590;23.364;2024-01-10T01:46:08;92137.13;;;-3.52
71807;BMP280;59655;42.590;23.364;2024-01-10T01:48:34;92147.78;;;-3.49
71807;BMP280;59655;42.590;23.364;2024-01-10T01:51:05;92141.88;;;-3.50
71807;BMP280;59655;42.590;23.364;2024-01-10T01:53:35;92138.44;;;-3.47
71807;BMP280;59655;42.590;23.364;2024-01-10T01:56:03;92132.47;;;-3.35
71807;BMP280;59655;42.590;23.364;2024-01-10T01:58:30;92133.56;;;-3.45
71807;BMP280;59655;42.590;23.364;2024-01-10T02:01:02;92128.19;;;-3.51
71807;BMP280;59655;42.590;23.364;2024-01-10T02:03:27;92120.41;;;-3.51
71807;BMP280;59655;42.590;23.364;2024-01-10T02:05:53;92125.59;;;-3.51
71807;BMP280;59655;42.590;23.364;2024-01-10T02:08:18;92121.97;;;-3.53
71807;BMP280;59655;42.590;23.364;2024-01-10T02:10:44;92117.91;;;-3.54
71807;BMP280;59655;42.590;23.364;2024-01-10T02:13:09;92111.94;;;-3.64
71807;BMP280;59655;42.590;23.364;2024-01-10T02:15:37;92115.38;;;-3.67
71807;BMP280;59655;42.590;23.364;2024-01-10T02:18:03;92120.13;;;-3.65
71807;BMP280;59655;42.590;23.364;2024-01-10T02:20:30;92115.44;;;-3.58
71807;BMP280;59655;42.590;23.364;2024-01-10T02:22:55;92122.72;;;-3.65
71807;BMP280;59655;42.590;23.364;2024-01-10T02:25:21;92122.19;;;-3.60
71807;BMP280;59655;42.590;23.364;2024-01-10T02:27:46;92123.75;;;-3.63
71807;BMP280;59655;42.590;23.364;2024-01-10T02:30:12;92125.97;;;-3.74
71807;BMP280;59655;42.590;23.364;2024-01-10T02:32:37;92126.84;;;-3.90
71807;BMP280;59655;42.590;23.364;2024-01-10T02:35:03;92132.84;;;-4.06
71807;BMP280;59655;42.590;23.364;2024-01-10T02:37:28;92125.63;;;-4.11
71807;BMP280;59655;42.590;23.364;2024-01-10T02:39:54;92132.56;;;-4.21
71807;BMP280;59655;42.590;23.364;2024-01-10T02:42:19;92126.13;;;-4.16
71807;BMP280;59655;42.590;23.364;2024-01-10T02:44:45;92139.81;;;-4.29
71807;BMP280;59655;42.590;23.364;2024-01-10T02:47:11;92130.06;;;-4.24
71807;BMP280;59655;42.590;23.364;2024-01-10T02:49:37;92135.78;;;-4.30
71807;BMP280;59655;42.590;23.364;2024-01-10T02:52:02;92123.13;;;-4.53
71807;BMP280;59655;42.590;23.364;2024-01-10T02:54:28;92125.13;;;-4.57
71807;BMP280;59655;42.590;23.364;2024-01-10T02:56:53;92121.56;;;-4.63
71807;BMP280;59655;42.590;23.364;2024-01-10T02:59:18;92130.56;;;-4.68
71807;BMP280;59655;42.590;23.364;2024-01-10T03:01:45;92129.50;;;-4.84
71807;BMP280;59655;42.590;23.364;2024-01-10T03:04:10;92136.03;;;-4.92
71807;BMP280;59655;42.590;23.364;2024-01-10T03:06:36;92138.41;;;-4.97
71807;BMP280;59655;42.590;23.364;2024-01-10T03:09:01;92128.97;;;-4.91
71807;BMP280;59655;42.590;23.364;2024-01-10T03:11:27;92131.25;;;-4.93
71807;BMP280;59655;42.590;23.364;2024-01-10T03:14:02;92138.19;;;-4.90
71807;BMP280;59655;42.590;23.364;2024-01-10T03:16:29;92139.38;;;-4.78
71807;BMP280;59655;42.590;23.364;2024-01-10T03:18:54;92140.53;;;-4.54
71807;BMP280;59655;42.590;23.364;2024-01-10T03:21:20;92141.97;;;-4.53
71807;BMP280;59655;42.590;23.364;2024-01-10T03:23:50;92147.16;;;-4.53
71807;BMP280;59655;42.590;23.364;2024-01-10T03:26:15;92139.81;;;-4.41
71807;BMP280;59655;42.590;23.364;2024-01-10T03:28:40;92140.84;;;-4.26
71807;BMP280;59655;42.590;23.364;2024-01-10T03:31:06;92142.84;;;-4.17
71807;BMP280;59655;42.590;23.364;2024-01-10T03:33:32;92143.00;;;-4.12
71807;BMP280;59655;42.590;23.364;2024-01-10T03:35:57;92146.31;;;-4.24
71807;BMP280;59655;42.590;23.364;2024-01-10T03:38:26;92142.00;;;-4.27
71807;BMP280;59655;42.590;23.364;2024-01-10T03:41:00;92129.34;;;-4.12
71807;BMP280;59655;42.590;23.364;2024-01-10T03:43:26;92130.88;;;-4.02
71807;BMP280;59655;42.590;23.364;2024-01-10T03:45:52;92121.16;;;-3.98
71807;BMP280;59655;42.590;23.364;2024-01-10T03:48:17;92133.16;;;-3.91
71807;BMP280;59655;42.590;23.364;2024-01-10T03:50:43;92129.00;;;-3.89
71807;BMP280;59655;42.590;23.364;2024-01-10T03:53:08;92133.03;;;-4.00
71807;BMP280;59655;42.590;23.364;2024-01-10T03:55:33;92137.50;;;-4.01
71807;BMP280;59655;42.590;23.364;2024-01-10T03:57:59;92143.75;;;-4.11
71807;BMP280;59655;42.590;23.364;2024-01-10T04:00:24;92141.25;;;-4.02
71807;BMP280;59655;42.590;23.364;2024-01-10T04:02:51;92145.81;;;-3.93
71807;BMP280;59655;42.590;23.364;2024-01-10T04:05:16;92139.72;;;-3.99
71807;BMP280;59655;42.590;23.364;2024-01-10T04:07:42;92145.19;;;-3.97
71807;BMP280;59655;42.590;23.364;2024-01-10T04:10:09;92144.16;;;-4.00
71807;BMP280;59655;42.590;23.364;2024-01-10T04:12:39;92162.19;;;-4.09
71807;BMP280;59655;42.590;23.364;2024-01-10T04:15:05;92150.97;;;-4.06
71807;BMP280;59655;42.590;23.364;2024-01-10T04:17:31;92160.63;;;-4.07
71807;BMP280;59655;42.590;23.364;2024-01-10T04:19:56;92151.09;;;-4.10
71807;BMP280;59655;42.590;23.364;2024-01-10T04:22:23;92161.88;;;-4.11
71807;BMP280;59655;42.590;23.364;2024-01-10T04:24:49;92161.34;;;-4.06
71807;BMP280;59655;42.590;23.364;2024-01-10T04:27:15;92151.63;;;-4.15
71807;BMP280;59655;42.590;23.364;2024-01-10T04:29:40;92165.19;;;-4.11
71807;BMP280;59655;42.590;23.364;2024-01-10T04:32:06;92157.72;;;-4.21
71807;BMP280;59655;42.590;23.364;2024-01-10T04:34:33;92162.28;;;-4.26
71807;BMP280;59655;42.590;23.364;2024-01-10T04:36:58;92166.75;;;-4.13
71807;BMP280;59655;42.590;23.364;2024-01-10T04:39:23;92173.69;;;-4.10
71807;BMP280;59655;42.590;23.364;2024-01-10T04:41:49;92170.38;;;-4.11
71807;BMP280;59655;42.590;23.364;2024-01-10T04:44:14;92175.66;;;-4.14
71807;BMP280;59655;42.590;23.364;2024-01-10T04:46:40;92182.00;;;-4.15
71807;BMP280;59655;42.590;23.364;2024-01-10T04:49:06;92185.41;;;-4.18
71807;BMP280;59655;42.590;23.364;2024-01-10T04:51:31;92185.41;;;-4.18
71807;BMP280;59655;42.590;23.364;2024-01-10T04:53:57;92186.75;;;-4.27
71807;BMP280;59655;42.590;23.364;2024-01-10T04:56:22;92189.22;;;-4.23
71807;BMP280;59655;42.590;23.364;2024-01-10T04:58:47;92196.16;;;-4.20
71807;BMP280;59655;42.590;23.364;2024-01-10T05:01:13;92193.78;;;-4.27
71807;BMP280;59655;42.590;23.364;2024-01-10T05:03:38;92187.44;;;-4.39
71807;BMP280;59655;42.590;23.364;2024-01-10T05:06:04;92190.94;;;-4.46
71807;BMP280;59655;42.590;23.364;2024-01-10T05:08:30;92181.50;;;-4.52
71807;BMP280;59655;42.590;23.364;2024-01-10T05:10:55;92188.88;;;-4.51
71807;BMP280;59655;42.590;23.364;2024-01-10T05:13:20;92185.13;;;-4.62
71807;BMP280;59655;42.590;23.364;2024-01-10T05:15:46;92188.50;;;-4.36
71807;BMP280;59655;42.590;23.364;2024-01-10T05:18:11;92191.97;;;-4.43
71807;BMP280;59655;42.590;23.364;2024-01-10T05:20:37;92196.16;;;-4.33
71807;BMP280;59655;42.590;23.364;2024-01-10T05:23:02;92197.72;;;-4.22
71807;BMP280;59655;42.590;23.364;2024-01-10T05:25:28;92196.69;;;-4.25
71807;BMP280;59655;42.590;23.364;2024-01-10T05:27:54;92193.97;;;-4.21
71807;BMP280;59655;42.590;23.364;2024-01-10T05:30:19;92191.38;;;-4.21
71807;BMP280;59655;42.590;23.364;2024-01-10T05:32:45;92199.69;;;-4.27
71807;BMP280;59655;42.590;23.364;2024-01-10T05:35:10;92199.69;;;-4.14
71807;BMP280;59655;42.590;23.364;2024-01-10T05:37:36;92201.66;;;-4.18
71807;BMP280;59655;42.590;23.364;2024-01-10T05:40:02;92206.28;;;-4.26
71807;BMP280;59655;42.590;23.364;2024-01-10T05:42:31;92209.31;;;-4.27
71807;BMP280;59655;42.590;23.364;2024-01-10T05:44:58;92207.56;;;-4.30
71807;BMP280;59655;42.590;23.364;2024-01-10T05:47:23;92208.69;;;-4.31
71807;BMP280;59655;42.590;23.364;2024-01-10T05:49:49;92203.63;;;-4.35
71807;BMP280;59655;42.590;23.364;2024-01-10T05:52:14;92204.97;;;-4.30
71807;BMP280;59655;42.590;23.364;2024-01-10T05:54:40;92214.09;;;-4.38
71807;BMP280;59655;42.590;23.364;2024-01-10T05:57:06;92215.53;;;-4.37
71807;BMP280;59655;42.590;23.364;2024-01-10T05:59:31;92212.53;;;-4.36
71807;BMP280;59655;42.590;23.364;2024-01-10T06:01:57;92221.09;;;-4.39
71807;BMP280;59655;42.590;23.364;2024-01-10T06:04:24;92222.16;;;-4.36
71807;BMP280;59655;42.590;23.364;2024-01-10T06:06:49;92224.00;;;-4.50
71807;BMP280;59655;42.590;23.364;2024-01-10T06:09:14;92220.38;;;-4.39
71807;BMP280;59655;42.590;23.364;2024-01-10T06:11:43;92229.44;;;-4.60
71807;BMP280;59655;42.590;23.364;2024-01-10T06:14:09;92232.94;;;-4.38
71807;BMP280;59655;42.590;23.364;2024-01-10T06:16:36;92227.50;;;-4.56
71807;BMP280;59655;42.590;23.364;2024-01-10T06:19:01;92232.25;;;-4.55
71807;BMP280;59655;42.590;23.364;2024-01-10T06:21:29;92226.25;;;-4.52
71807;BMP280;59655;42.590;23.364;2024-01-10T06:23:54;92224.22;;;-4.31
71807;BMP280;59655;42.590;23.364;2024-01-10T06:26:19;92232.28;;;-4.29
71807;BMP280;59655;42.590;23.364;2024-01-10T06:28:45;92230.75;;;-4.27
71807;BMP280;59655;42.590;23.364;2024-01-10T06:31:10;92233.06;;;-4.03
71807;BMP280;59655;42.590;23.364;2024-01-10T06:33:40;92237.19;;;-4.18
71807;BMP280;59655;42.590;23.364;2024-01-10T06:36:06;92243.59;;;-4.36
71807;BMP280;59655;42.590;23.364;2024-01-10T06:38:31;92247.88;;;-4.16
71807;BMP280;59655;42.590;23.364;2024-01-10T06:40:56;92236.66;;;-4.00
71807;BMP280;59655;42.590;23.364;2024-01-10T06:43:22;92250.06;;;-4.02
71807;BMP280;59655;42.590;23.364;2024-01-10T06:45:47;92250.25;;;-4.09
71807;BMP280;59655;42.590;23.364;2024-01-10T06:48:13;92249.09;;;-4.08
71807;BMP280;59655;42.590;23.364;2024-01-10T06:50:40;92249.84;;;-4.08
71807;BMP280;59655;42.590;23.364;2024-01-10T06:53:05;92260.00;;;-4.13
71807;BMP280;59655;42.590;23.364;2024-01-10T06:55:31;92258.41;;;-4.23
71807;BMP280;59655;42.590;23.364;2024-01-10T06:57:56;92261.22;;;-4.18
71807;BMP280;59655;42.590;23.364;2024-01-10T07:00:22;92262.03;;;-4.21
71807;BMP280;59655;42.590;23.364;2024-01-10T07:02:49;92265.19;;;-4.13
71807;BMP280;59655;42.590;23.364;2024-01-10T07:05:14;92266.31;;;-4.14
71807;BMP280;59655;42.590;23.364;2024-01-10T07:07:40;92273.72;;;-4.29
71807;BMP280;59655;42.590;23.364;2024-01-10T07:10:05;92273.78;;;-4.46
71807;BMP280;59655;42.590;23.364;2024-01-10T07:12:32;92263.13;;;-4.48
71807;BMP280;59655;42.590;23.364;2024-01-10T07:14:58;92268.31;;;-4.48
71807;BMP280;59655;42.590;23.364;2024-01-10T07:17:23;92269.09;;;-4.63
71807;BMP280;59655;42.590;23.364;2024-01-10T07:19:48;92267.63;;;-4.65
71807;BMP280;59655;42.590;23.364;2024-01-10T07:22:14;92272.78;;;-4.65
71807;BMP280;59655;42.590;23.364;2024-01-10T07:24:43;92268.97;;;-4.73
71807;BMP280;59655;42.590;23.364;2024-01-10T07:27:08;92271.38;;;-4.66
71807;BMP280;59655;42.590;23.364;2024-01-10T07:29:34;92274.25;;;-4.63
71807;BMP280;59655;42.590;23.364;2024-01-10T07:32:00;92280.31;;;-4.54
71807;BMP280;59655;42.590;23.364;2024-01-10T07:34:25;92287.66;;;-4.52
71807;BMP280;59655;42.590;23.364;2024-01-10T07:36:50;92279.88;;;-4.52
71807;BMP280;59655;42.590;23.364;2024-01-10T07:39:17;92280.00;;;-4.56
71807;BMP280;59655;42.590;23.364;2024-01-10T07:41:46;92283.91;;;-5.10
71807;BMP280;59655;42.590;23.364;2024-01-10T07:44:12;92284.03;;;-5.00
71807;BMP280;59655;42.590;23.364;2024-01-10T07:46:37;92290.22;;;-4.81
71807;BMP280;59655;42.590;23.364;2024-01-10T07:49:03;92290.97;;;-4.81
71807;BMP280;59655;42.590;23.364;2024-01-10T07:51:30;92288.81;;;-4.70
71807;BMP280;59655;42.590;23.364;2024-01-10T07:53:55;92292.50;;;-4.54
71807;BMP280;59655;42.590;23.364;2024-01-10T07:56:21;92286.22;;;-4.53
71807;BMP280;59655;42.590;23.364;2024-01-10T07:58:46;92290.84;;;-4.61
71807;BMP280;59655;42.590;23.364;2024-01-10T08:01:12;92290.31;;;-4.85
71807;BMP280;59655;42.590;23.364;2024-01-10T08:03:37;92296.50;;;-4.66
71807;BMP280;59655;42.590;23.364;2024-01-10T08:06:03;92290.88;;;-4.77
71807;BMP280;59655;42.590;23.364;2024-01-10T08:08:28;92299.69;;;-4.75
71807;BMP280;59655;42.590;23.364;2024-01-10T08:10:56;92300.28;;;-4.54
71807;BMP280;59655;42.590;23.364;2024-01-10T08:13:21;92308.25;;;-4.49
71807;BMP280;59655;42.590;23.364;2024-01-10T08:15:46;92301.25;;;-4.48
71807;BMP280;59655;42.590;23.364;2024-01-10T08:18:12;92296.25;;;-4.55
71807;BMP280;59655;42.590;23.364;2024-01-10T08:20:39;92311.06;;;-4.43
71807;BMP280;59655;42.590;23.364;2024-01-10T08:23:05;92309.56;;;-4.40
71807;BMP280;59655;42.590;23.364;2024-01-10T08:25:31;92312.16;;;-4.40
71807;BMP280;59655;42.590;23.364;2024-01-10T08:27:56;92310.81;;;-4.32
71807;BMP280;59655;42.590;23.364;2024-01-10T08:30:25;92306.88;;;-4.24
71807;BMP280;59655;42.590;23.364;2024-01-10T08:32:52;92315.06;;;-4.38
71807;BMP280;59655;42.590;23.364;2024-01-10T08:35:17;92310.28;;;-4.40
71807;BMP280;59655;42.590;23.364;2024-01-10T08:37:43;92321.09;;;-4.29
71807;BMP280;59655;42.590;23.364;2024-01-10T08:40:10;92316.09;;;-4.36
71807;BMP280;59655;42.590;23.364;2024-01-10T08:42:37;92314.03;;;-4.28
71807;BMP280;59655;42.590;23.364;2024-01-10T08:45:03;92318.72;;;-4.23
71807;BMP280;59655;42.590;23.364;2024-01-10T08:47:29;92312.13;;;-4.11
71807;BMP280;59655;42.590;23.364;2024-01-10T08:50:00;92311.50;;;-4.15
71807;BMP280;59655;42.590;23.364;2024-01-10T08:52:26;92309.84;;;-4.09
71807;BMP280;59655;42.590;23.364;2024-01-10T08:54:51;92310.75;;;-4.16
71807;BMP280;59655;42.590;23.364;2024-01-10T08:57:17;92305.38;;;-4.09
71807;BMP280;59655;42.590;23.364;2024-01-10T08:59:42;92316.81;;;-3.93
71807;BMP280;59655;42.590;23.364;2024-01-10T09:02:07;92318.69;;;-3.94
71807;BMP280;59655;42.590;23.364;2024-01-10T09:04:33;92320.03;;;-3.89
71807;BMP280;59655;42.590;23.364;2024-01-10T09:06:58;92320.53;;;-3.81
71807;BMP280;59655;42.590;23.364;2024-01-10T09:09:23;92314.22;;;-3.93
71807;BMP280;59655;42.590;23.364;2024-01-10T09:11:49;92317.53;;;-3.93
71807;BMP280;59655;42.590;23.364;2024-01-10T09:14:14;92311.72;;;-3.97
71807;BMP280;59655;42.590;23.364;2024-01-10T09:16:40;92312.44;;;-3.83
71807;BMP280;59655;42.590;23.364;2024-01-10T09:19:05;92312.44;;;-3.83
71807;BMP280;59655;42.590;23.364;2024-01-10T09:21:30;92318.34;;;-3.83
71807;BMP280;59655;42.590;23.364;2024-01-10T09:23:56;92317.06;;;-3.75
71807;BMP280;59655;42.590;23.364;2024-01-10T09:26:22;92313.72;;;-3.62
71807;BMP280;59655;42.590;23.364;2024-01-10T09:28:47;92313.06;;;-3.54
71807;BMP280;59655;42.590;23.364;2024-01-10T09:31:13;92321.09;;;-3.48
71807;BMP280;59655;42.590;23.364;2024-01-10T09:33:38;92305.41;;;-3.44
71807;BMP280;59655;42.590;23.364;2024-01-10T09:36:04;92312.88;;;-3.46
71807;BMP280;59655;42.590;23.364;2024-01-10T09:38:34;92313.31;;;-3.48
71807;BMP280;59655;42.590;23.364;2024-01-10T09:41:00;92307.91;;;-3.41
71807;BMP280;59655;42.590;23.364;2024-01-10T09:43:31;92310.38;;;-3.37
71807;BMP280;59655;42.590;23.364;2024-01-10T09:46:00;92305.91;;;-3.37
71807;BMP280;59655;42.590;23.364;2024-01-10T09:48:25;92311.00;;;-3.33
71807;BMP280;59655;42.590;23.364;2024-01-10T09:50:51;92310.09;;;-3.26
71807;BMP280;59655;42.590;23.364;2024-01-10T09:53:26;92310.59;;;-3.32
71807;BMP280;59655;42.590;23.364;2024-01-10T09:55:52;92310.47;;;-3.28
71807;BMP280;59655;42.590;23.364;2024-01-10T09:58:23;92310.81;;;-3.26
71807;BMP280;59655;42.590;23.364;2024-01-10T10:00:48;92311.31;;;-3.18
71807;BMP280;59655;42.590;23.364;2024-01-10T10:03:14;92313.78;;;-3.15
71807;BMP280;59655;42.590;23.364;2024-01-10T10:05:42;92307.34;;;-3.10
71807;BMP280;59655;42.590;23.364;2024-01-10T10:08:07;92303.72;;;-3.13
71807;BMP280;59655;42.590;23.364;2024-01-10T10:10:35;92299.13;;;-3.08
71807;BMP280;59655;42.590;23.364;2024-01-10T10:13:00;92296.66;;;-3.12
71807;BMP280;59655;42.590;23.364;2024-01-10T10:15:25;92289.38;;;-3.04
71807;BMP280;59655;42.590;23.364;2024-01-10T10:17:54;92292.88;;;-2.98
71807;BMP280;59655;42.590;23.364;2024-01-10T10:20:21;92282.41;;;-2.95
71807;BMP280;59655;42.590;23.364;2024-01-10T10:23:03;92283.41;;;-2.92
71807;BMP280;59655;42.590;23.364;2024-01-10T10:25:34;92278.31;;;-2.83
71807;BMP280;59655;42.590;23.364;2024-01-10T10:28:02;92268.28;;;-2.71
71807;BMP280;59655;42.590;23.364;2024-01-10T10:30:28;92268.50;;;-2.66
71807;BMP280;59655;42.590;23.364;2024-01-10T10:32:54;92259.13;;;-2.63
71807;BMP280;59655;42.590;23.364;2024-01-10T10:35:20;92245.59;;;-2.58
71807;BMP280;59655;42.590;23.364;2024-01-10T10:37:50;92254.28;;;-2.52
71807;BMP280;59655;42.590;23.364;2024-01-10T10:40:16;92252.28;;;-2.48
71807;BMP280;59655;42.590;23.364;2024-01-10T10:42:48;92251.75;;;-2.43
71807;BMP280;59655;42.590;23.364;2024-01-10T10:45:15;92243.81;;;-2.39
71807;BMP280;59655;42.590;23.364;2024-01-10T10:47:43;92251.03;;;-2.34
71807;BMP280;59655;42.590;23.364;2024-01-10T10:50:13;92244.63;;;-2.29
71807;BMP280;59655;42.590;23.364;2024-01-10T10:52:45;92233.66;;;-2.24
71807;BMP280;59655;42.590;23.364;2024-01-10T10:55:15;92236.13;;;-2.21
71807;BMP280;59655;42.590;23.364;2024-01-10T10:57:44;92230.81;;;-2.17
71807;BMP280;59655;42.590;23.364;2024-01-10T11:00:11;92227.78;;;-2.16
71807;BMP280;59655;42.590;23.364;2024-01-10T11:02:37;92223.16;;;-2.11
71807;BMP280;59655;42.590;23.364;2024-01-10T11:05:03;92222.31;;;-2.08
71807;BMP280;59655;42.590;23.364;2024-01-10T11:07:30;92225.50;;;-2.04
71807;BMP280;59655;42.590;23.364;2024-01-10T11:09:56;92223.63;;;-2.04
71807;BMP280;59655;42.590;23.364;2024-01-10T11:12:33;92215.41;;;-2.02
71807;BMP280;59655;42.590;23.364;2024-01-10T11:15:29;92209.50;;;-2.03
71807;BMP280;59655;42.590;23.364;2024-01-10T11:23:51;92208.19;;;-1.98
71807;BMP280;59655;42.590;23.364;2024-01-10T11:26:19;92200.25;;;-1.94
71807;BMP280;59655;42.590;23.364;2024-01-10T11:28:44;92211.38;;;-1.94
71807;BMP280;59655;42.590;23.364;2024-01-10T11:31:10;92205.03;;;-1.93
71807;BMP280;59655;42.590;23.364;2024-01-10T11:33:38;92201.97;;;-1.91
71807;BMP280;59655;42.590;23.364;2024-01-10T11:36:19;92193.38;;;-1.88
71807;BMP280;59655;42.590;23.364;2024-01-10T11:46:35;92191.38;;;-1.75
71807;BMP280;59655;42.590;23.364;2024-01-10T11:49:00;92187.19;;;-1.72
71807;BMP280;59655;42.590;23.364;2024-01-10T11:51:26;92176.63;;;-1.69
71807;BMP280;59655;42.590;23.364;2024-01-10T11:53:51;92186.19;;;-1.66
71807;BMP280;59655;42.590;23.364;2024-01-10T11:56:18;92180.09;;;-1.63
71807;BMP280;59655;42.590;23.364;2024-01-10T11:59:02;92179.69;;;-1.61
71807;BMP280;59655;42.590;23.364;2024-01-10T12:01:33;92174.34;;;-1.58
71807;BMP280;59655;42.590;23.364;2024-01-10T12:03:59;92172.75;;;-1.55
71807;BMP280;59655;42.590;23.364;2024-01-10T12:06:25;92167.53;;;-1.55
71807;BMP280;59655;42.590;23.364;2024-01-10T12:08:51;92165.22;;;-1.53
71807;BMP280;59655;42.590;23.364;2024-01-10T12:11:16;92160.75;;;-1.52
71807;BMP280;59655;42.590;23.364;2024-01-10T12:13:42;92162.78;;;-1.47
71807;BMP280;59655;42.590;23.364;2024-01-10T12:16:08;92151.50;;;-1.44
71807;BMP280;59655;42.590;23.364;2024-01-10T12:18:33;92157.84;;;-1.45
71807;BMP280;59655;42.590;23.364;2024-01-10T12:20:59;92144.41;;;-1.44
71807;BMP280;59655;42.590;23.364;2024-01-10T12:23:25;92142.81;;;-1.41
71807;BMP280;59655;42.590;23.364;2024-01-10T12:25:56;92145.56;;;-1.35
71807;BMP280;59655;42.590;23.364;2024-01-10T12:28:21;92142.56;;;-1.34
71807;BMP280;59655;42.590;23.364;2024-01-10T12:30:47;92148.47;;;-1.33
71807;BMP280;59655;42.590;23.364;2024-01-10T12:33:12;92147.34;;;-1.32
71807;BMP280;59655;42.590;23.364;2024-01-10T12:35:38;92151.41;;;-1.31
71807;BMP280;59655;42.590;23.364;2024-01-10T12:38:06;92141.97;;;-1.29
71807;BMP280;59655;42.590;23.364;2024-01-10T12:40:32;92143.41;;;-1.28
71807;BMP280;59655;42.590;23.364;2024-01-10T12:43:06;92153.41;;;-1.26
71807;BMP280;59655;42.590;23.364;2024-01-10T12:45:34;92149.19;;;-1.24
71807;BMP280;59655;42.590;23.364;2024-01-10T12:48:00;92145.16;;;-1.25
71807;BMP280;59655;42.590;23.364;2024-01-10T12:50:27;92156.72;;;-1.26
71807;BMP280;59655;42.590;23.364;2024-01-10T12:52:52;92144.31;;;-1.22
71807;BMP280;59655;42.590;23.364;2024-01-10T12:55:17;92155.72;;;-1.19
71807;BMP280;59655;42.590;23.364;2024-01-10T12:57:44;92153.38;;;-1.17
71807;BMP280;59655;42.590;23.364;2024-01-10T13:00:09;92156.72;;;-1.16
71807;BMP280;59655;42.590;23.364;2024-01-10T13:02:37;92157.28;;;-1.12
71807;BMP280;59655;42.590;23.364;2024-01-10T13:05:04;92162.19;;;-1.14
71807;BMP280;59655;42.590;23.364;2024-01-10T13:07:29;92158.88;;;-1.15
71807;BMP280;59655;42.590;23.364;2024-01-10T13:09:57;92156.13;;;-1.11
71807;BMP280;59655;42.590;23.364;2024-01-10T13:12:23;92155.41;;;-1.12
71807;BMP280;59655;42.590;23.364;2024-01-10T13:14:48;92162.78;;;-1.10
71807;BMP280;59655;42.590;23.364;2024-01-10T13:17:13;92162.47;;;-1.03
71807;BMP280;59655;42.590;23.364;2024-01-10T13:19:39;92163.19;;;-1.03
71807;BMP280;59655;42.590;23.364;2024-01-10T13:22:07;92164.22;;;-1.00
71807;BMP280;59655;42.590;23.364;2024-01-10T13:24:32;92159.16;;;-0.94
71807;BMP280;59655;42.590;23.364;2024-01-10T13:26:58;92163.47;;;-0.91
71807;BMP280;59655;42.590;23.364;2024-01-10T13:29:23;92162.47;;;-1.03
71807;BMP280;59655;42.590;23.364;2024-01-10T13:31:48;92170.00;;;-0.96
71807;BMP280;59655;42.590;23.364;2024-01-10T13:34:14;92162.47;;;-0.94
71807;BMP280;59655;42.590;23.364;2024-01-10T13:36:40;92162.03;;;-0.92
71807;BMP280;59655;42.590;23.364;2024-01-10T13:39:06;92165.91;;;-0.88
71807;BMP280;59655;42.590;23.364;2024-01-10T13:41:32;92170.25;;;-0.85
71807;BMP280;59655;42.590;23.364;2024-01-10T13:43:57;92168.38;;;-0.84
71807;BMP280;59655;42.590;23.364;2024-01-10T13:46:23;92160.13;;;-0.83
71807;BMP280;59655;42.590;23.364;2024-01-10T13:48:48;92169.00;;;-1.17
71807;BMP280;59655;42.590;23.364;2024-01-10T13:51:14;92165.66;;;-1.08
71807;BMP280;59655;42.590;23.364;2024-01-10T13:53:40;92149.78;;;-1.29
71807;BMP280;59655;42.590;23.364;2024-01-10T13:56:06;92155.00;;;-1.20
71807;BMP280;59655;42.590;23.364;2024-01-10T13:58:31;92161.91;;;-1.07
71807;BMP280;59655;42.590;23.364;2024-01-10T14:00:58;92162.03;;;-1.02
71807;BMP280;59655;42.590;23.364;2024-01-10T14:03:24;92156.56;;;-1.04
71807;BMP280;59655;42.590;23.364;2024-01-10T14:05:50;92156.00;;;-1.08